createdAt,value
2022-12-27T00:00:26.257Z,1014.59
2022-12-27T00:01:26.188Z,1014.62
2022-12-27T00:02:26.145Z,1014.63
2022-12-27T00:03:26.146Z,1014.63
2022-12-27T00:04:26.131Z,1014.60
2022-12-27T00:05:26.122Z,1014.68
2022-12-27T00:06:26.103Z,1014.67
2022-12-27T00:07:26.140Z,1014.68
2022-12-27T00:08:26.081Z,1014.62
2022-12-27T00:09:26.103Z,1014.70
2022-12-27T00:10:26.061Z,1014.75
2022-12-27T00:11:26.053Z,1014.73
2022-12-27T00:12:26.071Z,1014.79
2022-12-27T00:13:26.036Z,1014.80
2022-12-27T00:14:26.020Z,1014.78
2022-12-27T00:15:26.018Z,1014.82
2022-12-27T00:16:26.055Z,1014.70
2022-12-27T00:17:26.023Z,1014.73
2022-12-27T00:18:25.982Z,1014.84
2022-12-27T00:19:25.967Z,1014.86
2022-12-27T00:20:25.957Z,1014.90
2022-12-27T00:21:25.938Z,1014.81
2022-12-27T00:22:25.956Z,1014.78
2022-12-27T00:23:25.956Z,1014.78
2022-12-27T00:24:25.919Z,1014.81
2022-12-27T00:25:25.898Z,1014.80
2022-12-27T00:26:25.888Z,1014.83
2022-12-27T00:27:25.884Z,1014.82
2022-12-27T00:28:25.886Z,1014.84
2022-12-27T00:29:25.861Z,1014.85
2022-12-27T00:30:25.846Z,1014.83
2022-12-27T00:31:25.909Z,1014.88
2022-12-27T00:32:25.823Z,1014.81
2022-12-27T00:33:25.841Z,1014.83
2022-12-27T00:34:25.810Z,1014.84
2022-12-27T00:35:25.807Z,1014.86
2022-12-27T00:36:25.797Z,1014.81
2022-12-27T00:37:25.780Z,1014.81
2022-12-27T00:38:25.789Z,1014.82
2022-12-27T00:39:25.770Z,1014.80
2022-12-27T00:40:25.750Z,1014.85
2022-12-27T00:41:25.754Z,1014.84
2022-12-27T00:42:25.721Z,1014.93
2022-12-27T00:43:25.738Z,1014.84
2022-12-27T00:44:25.719Z,1014.83
2022-12-27T00:45:25.755Z,1014.90
2022-12-27T00:46:25.693Z,1014.80
2022-12-27T00:47:25.683Z,1014.96
2022-12-27T00:48:25.660Z,1014.98
2022-12-27T00:49:25.654Z,1014.90
2022-12-27T00:50:25.658Z,1015.07
2022-12-27T00:51:25.627Z,1015.01
2022-12-27T00:52:25.609Z,1015.03
2022-12-27T00:53:25.617Z,1015.05
2022-12-27T00:54:25.598Z,1014.95
2022-12-27T00:55:25.613Z,1014.99
2022-12-27T00:56:25.569Z,1014.99
2022-12-27T00:57:25.572Z,1014.95
2022-12-27T00:58:25.550Z,1014.94
2022-12-27T00:59:25.555Z,1014.97
2022-12-27T01:00:25.528Z,1015.01
2022-12-27T01:01:25.663Z,1015.08
2022-12-27T01:02:25.505Z,1015.07
2022-12-27T01:03:25.538Z,1015.12
2022-12-27T01:04:25.487Z,1015.00
2022-12-27T01:05:25.479Z,1015.02
2022-12-27T01:06:25.489Z,1014.98
2022-12-27T01:07:25.461Z,1015.10
2022-12-27T01:08:25.451Z,1015.09
2022-12-27T01:09:25.440Z,1015.17
2022-12-27T01:10:25.424Z,1015.06
2022-12-27T01:11:25.422Z,1015.08
2022-12-27T01:12:25.425Z,1015.11
2022-12-27T01:13:25.400Z,1015.10
2022-12-27T01:14:25.377Z,1015.12
2022-12-27T01:15:25.372Z,1015.11
2022-12-27T01:16:25.415Z,1015.04
2022-12-27T01:17:25.373Z,1015.04
2022-12-27T01:18:25.335Z,1015.09
2022-12-27T01:19:25.338Z,1015.19
2022-12-27T01:20:25.311Z,1015.04
2022-12-27T01:21:25.347Z,1015.02
2022-12-27T01:22:25.309Z,1015.09
2022-12-27T01:23:25.339Z,1015.06
2022-12-27T01:24:25.288Z,1015.04
2022-12-27T01:25:25.266Z,1015.17
2022-12-27T01:26:25.250Z,1015.05
2022-12-27T01:27:25.280Z,1015.11
2022-12-27T01:28:25.243Z,1015.15
2022-12-27T01:29:25.215Z,1015.12
2022-12-27T01:30:25.216Z,1015.23
2022-12-27T01:31:25.261Z,1015.14
2022-12-27T01:32:25.220Z,1015.22
2022-12-27T01:33:25.225Z,1015.05
2022-12-27T01:34:25.169Z,1015.07
2022-12-27T01:35:25.151Z,1015.14
2022-12-27T01:36:25.140Z,1015.17
2022-12-27T01:37:25.137Z,1015.17
2022-12-27T01:38:25.151Z,1015.23
2022-12-27T01:39:25.141Z,1015.26
2022-12-27T01:40:25.100Z,1015.26
2022-12-27T01:41:25.094Z,1015.24
2022-12-27T01:42:25.081Z,1015.31
2022-12-27T01:43:25.119Z,1015.36
2022-12-27T01:44:25.061Z,1015.28
2022-12-27T01:45:25.054Z,1015.40
2022-12-27T01:46:25.079Z,1015.39
2022-12-27T01:47:25.032Z,1015.39
2022-12-27T01:48:25.012Z,1015.40
2022-12-27T01:49:25.029Z,1015.41
2022-12-27T01:50:25.030Z,1015.37
2022-12-27T01:51:24.990Z,1015.40
2022-12-27T01:52:24.979Z,1015.45
2022-12-27T01:53:24.972Z,1015.48
2022-12-27T01:54:24.949Z,1015.52
2022-12-27T01:55:24.971Z,1015.47
2022-12-27T01:56:24.930Z,1015.52
2022-12-27T01:57:24.920Z,1015.52
2022-12-27T01:58:24.930Z,1015.55
2022-12-27T01:59:24.930Z,1015.60
2022-12-27T02:00:24.895Z,1015.54
2022-12-27T02:01:24.987Z,1015.59
2022-12-27T02:02:24.974Z,1015.61
2022-12-27T02:03:24.873Z,1015.63
2022-12-27T02:04:24.848Z,1015.64
2022-12-27T02:05:24.869Z,1015.53
2022-12-27T02:06:24.822Z,1015.54
2022-12-27T02:07:24.819Z,1015.56
2022-12-27T02:08:24.811Z,1015.50
2022-12-27T02:09:24.805Z,1015.50
2022-12-27T02:10:24.779Z,1015.50
2022-12-27T02:11:24.799Z,1015.48
2022-12-27T02:12:24.759Z,1015.51
2022-12-27T02:13:24.757Z,1015.48
2022-12-27T02:14:27.913Z,1015.50
2022-12-27T02:15:24.757Z,1015.39
2022-12-27T02:16:24.770Z,1015.43
2022-12-27T02:17:24.704Z,1015.46
2022-12-27T02:18:24.698Z,1015.31
2022-12-27T02:19:24.692Z,1015.45
2022-12-27T02:20:24.680Z,1015.50
2022-12-27T02:21:24.684Z,1015.42
2022-12-27T02:22:24.660Z,1015.40
2022-12-27T02:23:24.659Z,1015.46
2022-12-27T02:24:24.647Z,1015.45
2022-12-27T02:25:24.620Z,1015.30
2022-12-27T02:26:24.627Z,1015.38
2022-12-27T02:27:24.634Z,1015.49
2022-12-27T02:28:24.588Z,1015.41
2022-12-27T02:29:24.578Z,1015.45
2022-12-27T02:30:24.560Z,1015.44
2022-12-27T02:31:24.580Z,1015.34
2022-12-27T02:32:24.542Z,1015.35
2022-12-27T02:33:24.542Z,1015.31
2022-12-27T02:34:24.532Z,1015.34
2022-12-27T02:35:24.508Z,1015.33
2022-12-27T02:36:24.500Z,1015.36
2022-12-27T02:37:24.514Z,1015.35
2022-12-27T02:38:24.481Z,1015.30
2022-12-27T02:39:24.471Z,1015.36
2022-12-27T02:40:24.458Z,1015.34
2022-12-27T02:41:24.453Z,1015.36
2022-12-27T02:42:24.450Z,1015.24
2022-12-27T02:43:24.451Z,1015.32
2022-12-27T02:44:24.439Z,1015.28
2022-12-27T02:45:24.409Z,1015.31
2022-12-27T02:46:24.479Z,1015.33
2022-12-27T02:47:24.388Z,1015.19
2022-12-27T02:48:24.402Z,1015.26
2022-12-27T02:49:24.369Z,1015.26
2022-12-27T02:50:24.351Z,1015.30
2022-12-27T02:51:24.341Z,1015.35
2022-12-27T02:52:24.330Z,1015.37
2022-12-27T02:53:24.332Z,1015.46
2022-12-27T02:54:24.330Z,1015.42
2022-12-27T02:55:24.300Z,1015.30
2022-12-27T02:56:24.300Z,1015.39
2022-12-27T02:57:24.280Z,1015.32
2022-12-27T02:58:24.290Z,1015.40
2022-12-27T02:59:24.258Z,1015.41
2022-12-27T03:00:24.258Z,1015.41
2022-12-27T03:01:24.303Z,1015.33
2022-12-27T03:02:24.377Z,1015.40
2022-12-27T03:03:24.315Z,1015.49
2022-12-27T03:04:24.226Z,1015.49
2022-12-27T03:05:24.192Z,1015.49
2022-12-27T03:06:24.189Z,1015.39
2022-12-27T03:07:24.170Z,1015.44
2022-12-27T03:08:24.166Z,1015.38
2022-12-27T03:09:24.172Z,1015.44
2022-12-27T03:10:24.138Z,1015.33
2022-12-27T03:11:24.137Z,1015.44
2022-12-27T03:12:24.118Z,1015.39
2022-12-27T03:13:24.121Z,1015.44
2022-12-27T03:14:24.101Z,1015.39
2022-12-27T03:15:26.026Z,1015.36
2022-12-27T03:16:25.116Z,1015.33
2022-12-27T03:17:24.060Z,1015.36
2022-12-27T03:18:24.061Z,1015.33
2022-12-27T03:19:24.068Z,1015.28
2022-12-27T03:20:24.040Z,1015.27
2022-12-27T03:21:24.030Z,1015.30
2022-12-27T03:22:24.009Z,1015.25
2022-12-27T03:23:24.015Z,1015.27
2022-12-27T03:24:23.998Z,1015.25
2022-12-27T03:25:24.007Z,1015.38
2022-12-27T03:26:23.969Z,1015.31
2022-12-27T03:27:23.959Z,1015.29
2022-12-27T03:28:23.948Z,1015.53
2022-12-27T03:29:23.940Z,1015.47
2022-12-27T03:30:23.928Z,1015.40
2022-12-27T03:31:23.929Z,1015.44
2022-12-27T03:32:23.925Z,1015.45
2022-12-27T03:33:23.899Z,1015.44
2022-12-27T03:34:23.886Z,1015.62
2022-12-27T03:35:23.876Z,1015.53
2022-12-27T03:36:23.894Z,1015.54
2022-12-27T03:37:23.847Z,1015.56
2022-12-27T03:38:23.847Z,1015.57
2022-12-27T03:39:23.827Z,1015.69
2022-12-27T03:40:23.825Z,1015.60
2022-12-27T03:41:23.815Z,1015.68
2022-12-27T03:42:23.820Z,1015.74
2022-12-27T03:43:23.798Z,1015.70
2022-12-27T03:44:23.780Z,1015.69
2022-12-27T03:45:23.762Z,1015.54
2022-12-27T03:46:23.818Z,1015.59
2022-12-27T03:47:23.739Z,1015.72
2022-12-27T03:48:23.766Z,1015.67
2022-12-27T03:49:23.752Z,1015.59
2022-12-27T03:50:23.707Z,1015.68
2022-12-27T03:51:23.745Z,1015.62
2022-12-27T03:52:23.697Z,1015.64
2022-12-27T03:53:23.689Z,1015.70
2022-12-27T03:54:23.675Z,1015.80
2022-12-27T03:55:27.179Z,1015.62
2022-12-27T03:56:24.664Z,1015.66
2022-12-27T03:57:23.648Z,1015.72
2022-12-27T03:58:23.630Z,1015.76
2022-12-27T03:59:23.633Z,1015.65
2022-12-27T04:00:23.610Z,1015.74
2022-12-27T04:01:23.686Z,1015.75
2022-12-27T04:02:23.799Z,1015.79
2022-12-27T04:03:23.615Z,1015.73
2022-12-27T04:04:23.590Z,1015.82
2022-12-27T04:05:23.548Z,1015.83
2022-12-27T04:06:23.538Z,1015.80
2022-12-27T04:07:23.538Z,1015.78
2022-12-27T04:08:23.522Z,1015.78
2022-12-27T04:09:23.509Z,1015.72
2022-12-27T04:10:23.519Z,1015.75
2022-12-27T04:11:23.489Z,1015.83
2022-12-27T04:12:23.490Z,1015.86
2022-12-27T04:13:23.469Z,1015.73
2022-12-27T04:14:23.455Z,1015.76
2022-12-27T04:15:23.506Z,1015.71
2022-12-27T04:16:23.449Z,1015.66
2022-12-27T04:17:23.420Z,1015.71
2022-12-27T04:18:23.416Z,1015.73
2022-12-27T04:19:23.404Z,1015.84
2022-12-27T04:20:23.399Z,1015.75
2022-12-27T04:21:23.399Z,1015.73
2022-12-27T04:22:23.370Z,1015.72
2022-12-27T04:23:23.397Z,1015.71
2022-12-27T04:24:23.348Z,1015.78
2022-12-27T04:25:23.339Z,1015.76
2022-12-27T04:26:23.374Z,1015.83
2022-12-27T04:27:23.319Z,1015.84
2022-12-27T04:28:23.318Z,1015.90
2022-12-27T04:29:23.311Z,1015.91
2022-12-27T04:30:23.289Z,1015.91
2022-12-27T04:31:23.313Z,1015.90
2022-12-27T04:32:23.288Z,1015.89
2022-12-27T04:33:23.339Z,1015.93
2022-12-27T04:34:23.251Z,1015.98
2022-12-27T04:35:23.231Z,1015.93
2022-12-27T04:36:23.231Z,1016.01
2022-12-27T04:37:23.243Z,1016.07
2022-12-27T04:38:23.201Z,1016.03
2022-12-27T04:39:29.951Z,1016.04
2022-12-27T04:40:23.196Z,1016.16
2022-12-27T04:41:23.170Z,1016.15
2022-12-27T04:42:23.178Z,1016.04
2022-12-27T04:43:23.146Z,1015.97
2022-12-27T04:44:23.145Z,1016.01
2022-12-27T04:45:23.127Z,1015.93
2022-12-27T04:46:23.204Z,1015.89
2022-12-27T04:47:23.106Z,1016.04
2022-12-27T04:48:23.118Z,1016.01
2022-12-27T04:49:23.093Z,1015.96
2022-12-27T04:50:23.074Z,1015.97
2022-12-27T04:51:23.074Z,1016.04
2022-12-27T04:52:23.045Z,1015.99
2022-12-27T04:53:23.065Z,1016.02
2022-12-27T04:54:23.027Z,1015.98
2022-12-27T04:55:23.019Z,1016.04
2022-12-27T04:56:23.019Z,1016.05
2022-12-27T04:57:22.996Z,1016.01
2022-12-27T04:58:23.011Z,1016.03
2022-12-27T04:59:22.997Z,1016.03
2022-12-27T05:00:22.964Z,1016.00
2022-12-27T05:01:23.110Z,1016.00
2022-12-27T05:02:23.187Z,1015.98
2022-12-27T05:03:22.964Z,1015.96
2022-12-27T05:04:23.243Z,1016.04
2022-12-27T05:05:22.909Z,1016.02
2022-12-27T05:06:23.082Z,1015.98
2022-12-27T05:07:22.919Z,1016.05
2022-12-27T05:08:22.882Z,1016.08
2022-12-27T05:09:23.401Z,1016.02
2022-12-27T05:10:22.870Z,1016.04
2022-12-27T05:11:22.911Z,1016.10
2022-12-27T05:12:22.847Z,1016.11
2022-12-27T05:13:22.865Z,1016.22
2022-12-27T05:14:22.814Z,1016.14
2022-12-27T05:15:22.807Z,1016.22
2022-12-27T05:16:22.825Z,1016.22
2022-12-27T05:17:22.786Z,1016.30
2022-12-27T05:18:22.786Z,1016.23
2022-12-27T05:19:22.758Z,1016.18
2022-12-27T05:20:30.536Z,1016.16
2022-12-27T05:21:22.756Z,1016.25
2022-12-27T05:22:22.726Z,1016.25
2022-12-27T05:23:22.752Z,1016.22
2022-12-27T05:24:22.716Z,1016.25
2022-12-27T05:25:22.697Z,1016.30
2022-12-27T05:26:22.687Z,1016.23
2022-12-27T05:27:22.676Z,1016.37
2022-12-27T05:28:22.664Z,1016.34
2022-12-27T05:29:22.680Z,1016.36
2022-12-27T05:30:22.644Z,1016.33
2022-12-27T05:31:22.668Z,1016.48
2022-12-27T05:32:22.622Z,1016.35
2022-12-27T05:33:22.635Z,1016.37
2022-12-27T05:34:22.597Z,1016.37
2022-12-27T05:35:22.584Z,1016.32
2022-12-27T05:36:22.578Z,1016.37
2022-12-27T05:37:22.568Z,1016.42
2022-12-27T05:38:22.575Z,1016.34
2022-12-27T05:39:22.583Z,1016.40
2022-12-27T05:40:22.535Z,1016.38
2022-12-27T05:41:22.532Z,1016.39
2022-12-27T05:42:22.508Z,1016.48
2022-12-27T05:43:22.513Z,1016.46
2022-12-27T05:44:22.525Z,1016.36
2022-12-27T05:45:22.477Z,1016.40
2022-12-27T05:46:22.511Z,1016.39
2022-12-27T05:47:22.477Z,1016.45
2022-12-27T05:48:22.484Z,1016.46
2022-12-27T05:49:22.443Z,1016.47
2022-12-27T05:50:22.444Z,1016.44
2022-12-27T05:51:22.438Z,1016.43
2022-12-27T05:52:22.407Z,1016.47
2022-12-27T05:53:22.398Z,1016.46
2022-12-27T05:54:22.386Z,1016.50
2022-12-27T05:55:22.417Z,1016.54
2022-12-27T05:56:22.368Z,1016.45
2022-12-27T05:57:22.370Z,1016.53
2022-12-27T05:58:22.355Z,1016.57
2022-12-27T05:59:22.336Z,1016.50
2022-12-27T06:00:22.317Z,1016.51
2022-12-27T06:01:22.367Z,1016.57
2022-12-27T06:02:22.401Z,1016.56
2022-12-27T06:03:22.426Z,1016.77
2022-12-27T06:04:22.915Z,1016.63
2022-12-27T06:05:22.306Z,1016.78
2022-12-27T06:06:22.255Z,1016.61
2022-12-27T06:07:22.243Z,1016.60
2022-12-27T06:08:22.227Z,1016.67
2022-12-27T06:09:22.276Z,1016.71
2022-12-27T06:10:22.245Z,1016.74
2022-12-27T06:11:22.206Z,1016.72
2022-12-27T06:12:22.194Z,1016.72
2022-12-27T06:13:22.207Z,1016.72
2022-12-27T06:14:22.166Z,1016.76
2022-12-27T06:15:22.191Z,1016.70
2022-12-27T06:16:22.201Z,1016.76
2022-12-27T06:17:22.145Z,1016.77
2022-12-27T06:18:22.127Z,1016.80
2022-12-27T06:19:22.119Z,1016.87
2022-12-27T06:20:22.126Z,1016.73
2022-12-27T06:21:22.113Z,1016.85
2022-12-27T06:22:22.089Z,1016.80
2022-12-27T06:23:22.098Z,1016.79
2022-12-27T06:24:22.169Z,1016.72
2022-12-27T06:25:22.073Z,1016.73
2022-12-27T06:26:22.037Z,1016.84
2022-12-27T06:27:22.096Z,1016.84
2022-12-27T06:28:22.023Z,1016.87
2022-12-27T06:29:22.039Z,1016.93
2022-12-27T06:30:22.037Z,1016.86
2022-12-27T06:31:22.072Z,1016.88
2022-12-27T06:32:21.984Z,1016.88
2022-12-27T06:33:21.977Z,1016.92
2022-12-27T06:34:21.971Z,1016.96
2022-12-27T06:35:21.960Z,1016.95
2022-12-27T06:36:21.965Z,1017.02
2022-12-27T06:37:21.943Z,1016.92
2022-12-27T06:38:21.914Z,1016.93
2022-12-27T06:39:21.927Z,1016.96
2022-12-27T06:40:21.919Z,1017.00
2022-12-27T06:41:21.898Z,1016.95
2022-12-27T06:42:21.868Z,1017.03
2022-12-27T06:43:21.863Z,1017.10
2022-12-27T06:44:21.866Z,1017.12
2022-12-27T06:45:21.863Z,1017.15
2022-12-27T06:46:21.843Z,1017.08
2022-12-27T06:47:21.811Z,1017.12
2022-12-27T06:48:21.798Z,1017.12
2022-12-27T06:49:21.795Z,1017.14
2022-12-27T06:50:21.810Z,1017.15
2022-12-27T06:51:21.878Z,1016.97
2022-12-27T06:52:21.775Z,1017.15
2022-12-27T06:53:21.751Z,1017.03
2022-12-27T06:54:21.743Z,1017.08
2022-12-27T06:55:21.756Z,1017.06
2022-12-27T06:56:21.755Z,1017.14
2022-12-27T06:57:21.706Z,1017.05
2022-12-27T06:58:21.705Z,1017.07
2022-12-27T06:59:21.689Z,1017.07
2022-12-27T07:00:21.709Z,1017.13
2022-12-27T07:01:21.810Z,1017.14
2022-12-27T07:02:21.769Z,1017.12
2022-12-27T07:03:21.672Z,1017.16
2022-12-27T07:04:21.657Z,1017.17
2022-12-27T07:05:21.622Z,1017.27
2022-12-27T07:06:21.616Z,1017.21
2022-12-27T07:07:21.615Z,1017.22
2022-12-27T07:08:21.715Z,1017.22
2022-12-27T07:09:21.580Z,1017.28
2022-12-27T07:10:21.573Z,1017.29
2022-12-27T07:11:21.584Z,1017.33
2022-12-27T07:12:21.556Z,1017.23
2022-12-27T07:13:21.637Z,1017.29
2022-12-27T07:14:21.524Z,1017.30
2022-12-27T07:15:21.515Z,1017.35
2022-12-27T07:16:21.630Z,1017.28
2022-12-27T07:17:21.487Z,1017.35
2022-12-27T07:18:21.507Z,1017.30
2022-12-27T07:19:21.475Z,1017.37
2022-12-27T07:20:21.462Z,1017.34
2022-12-27T07:21:21.456Z,1017.64
2022-12-27T07:22:21.449Z,1017.35
2022-12-27T07:23:21.428Z,1017.37
2022-12-27T07:24:21.446Z,1017.35
2022-12-27T07:25:21.427Z,1017.39
2022-12-27T07:26:21.403Z,1017.42
2022-12-27T07:27:21.392Z,1017.49
2022-12-27T07:28:21.404Z,1017.51
2022-12-27T07:29:21.365Z,1017.61
2022-12-27T07:30:21.358Z,1017.56
2022-12-27T07:31:21.362Z,1017.65
2022-12-27T07:32:21.346Z,1017.60
2022-12-27T07:33:21.333Z,1017.48
2022-12-27T07:34:21.353Z,1017.61
2022-12-27T07:35:21.297Z,1017.63
2022-12-27T07:36:21.316Z,1017.64
2022-12-27T07:37:21.279Z,1017.73
2022-12-27T07:38:21.277Z,1017.73
2022-12-27T07:39:21.249Z,1017.93
2022-12-27T07:40:21.266Z,1017.78
2022-12-27T07:41:21.240Z,1017.75
2022-12-27T07:42:21.219Z,1017.69
2022-12-27T07:43:21.218Z,1017.83
2022-12-27T07:44:21.218Z,1017.79
2022-12-27T07:45:21.234Z,1017.78
2022-12-27T07:46:21.184Z,1017.76
2022-12-27T07:47:21.166Z,1017.75
2022-12-27T07:48:21.177Z,1017.73
2022-12-27T07:49:21.149Z,1017.76
2022-12-27T07:50:21.150Z,1017.76
2022-12-27T07:51:21.146Z,1017.85
2022-12-27T07:52:21.114Z,1017.86
2022-12-27T07:53:21.109Z,1017.80
2022-12-27T07:54:21.103Z,1017.90
2022-12-27T07:55:21.081Z,1017.93
2022-12-27T07:56:25.777Z,1017.91
2022-12-27T07:57:22.061Z,1017.86
2022-12-27T07:58:21.057Z,1017.91
2022-12-27T07:59:21.035Z,1017.94
2022-12-27T08:00:21.034Z,1017.94
2022-12-27T08:01:21.147Z,1017.97
2022-12-27T08:02:21.079Z,1017.97
2022-12-27T08:03:21.037Z,1017.97
2022-12-27T08:04:20.987Z,1017.99
2022-12-27T08:05:25.965Z,1018.01
2022-12-27T08:06:21.984Z,1017.98
2022-12-27T08:07:20.955Z,1017.99
2022-12-27T08:08:20.950Z,1018.00
2022-12-27T08:09:20.928Z,1017.96
2022-12-27T08:10:20.942Z,1017.97
2022-12-27T08:11:20.947Z,1017.94
2022-12-27T08:12:20.926Z,1017.92
2022-12-27T08:13:20.897Z,1017.96
2022-12-27T08:14:20.887Z,1017.94
2022-12-27T08:15:20.869Z,1017.94
2022-12-27T08:16:20.898Z,1018.02
2022-12-27T08:17:20.875Z,1018.00
2022-12-27T08:18:20.845Z,1018.02
2022-12-27T08:19:20.825Z,1018.02
2022-12-27T08:20:20.815Z,1018.04
2022-12-27T08:21:20.820Z,1018.05
2022-12-27T08:22:20.810Z,1018.06
2022-12-27T08:23:20.814Z,1018.13
2022-12-27T08:24:20.770Z,1018.16
2022-12-27T08:25:20.768Z,1018.16
2022-12-27T08:26:20.749Z,1018.14
2022-12-27T08:27:20.735Z,1018.12
2022-12-27T08:28:20.759Z,1018.14
2022-12-27T08:29:20.720Z,1018.21
2022-12-27T08:30:20.709Z,1018.20
2022-12-27T08:31:20.756Z,1018.26
2022-12-27T08:32:20.694Z,1018.25
2022-12-27T08:33:20.698Z,1018.30
2022-12-27T08:34:20.668Z,1018.34
2022-12-27T08:35:51.082Z,1018.33
2022-12-27T08:36:53.500Z,1018.33
2022-12-27T08:37:21.634Z,1018.39
2022-12-27T08:38:20.678Z,1018.41
2022-12-27T08:39:20.609Z,1018.41
2022-12-27T08:40:20.598Z,1018.38
2022-12-27T08:41:20.588Z,1018.36
2022-12-27T08:42:20.579Z,1018.40
2022-12-27T08:43:20.574Z,1018.35
2022-12-27T08:44:20.593Z,1018.28
2022-12-27T08:45:20.546Z,1018.32
2022-12-27T08:46:20.661Z,1018.38
2022-12-27T08:47:20.528Z,1018.36
2022-12-27T08:48:20.585Z,1018.31
2022-12-27T08:49:20.497Z,1018.37
2022-12-27T08:50:20.516Z,1018.43
2022-12-27T08:51:32.721Z,1018.41
2022-12-27T08:52:21.468Z,1018.33
2022-12-27T08:53:20.460Z,1018.32
2022-12-27T08:54:20.461Z,1018.37
2022-12-27T08:55:20.458Z,1018.30
2022-12-27T08:56:20.448Z,1018.42
2022-12-27T08:57:20.423Z,1018.43
2022-12-27T08:58:20.434Z,1018.37
2022-12-27T08:59:20.389Z,1018.43
2022-12-27T09:00:20.379Z,1018.33
2022-12-27T09:01:20.483Z,1018.37
2022-12-27T09:02:20.500Z,1018.37
2022-12-27T09:03:20.407Z,1018.41
2022-12-27T09:04:20.484Z,1018.38
2022-12-27T09:05:20.461Z,1018.39
2022-12-27T09:06:20.352Z,1018.41
2022-12-27T09:07:20.327Z,1018.35
2022-12-27T09:08:20.298Z,1018.38
2022-12-27T09:09:20.291Z,1018.34
2022-12-27T09:10:20.310Z,1018.35
2022-12-27T09:11:20.269Z,1018.42
2022-12-27T09:12:20.289Z,1018.45
2022-12-27T09:13:20.246Z,1018.39
2022-12-27T09:14:20.237Z,1018.42
2022-12-27T09:15:20.227Z,1018.41
2022-12-27T09:16:20.248Z,1018.47
2022-12-27T09:17:20.226Z,1018.37
2022-12-27T09:18:20.189Z,1018.39
2022-12-27T09:19:20.178Z,1018.42
2022-12-27T09:20:20.168Z,1018.52
2022-12-27T09:21:20.170Z,1018.35
2022-12-27T09:22:20.198Z,1018.42
2022-12-27T09:23:20.130Z,1018.42
2022-12-27T09:24:20.129Z,1018.43
2022-12-27T09:25:20.131Z,1018.46
2022-12-27T09:26:20.105Z,1018.45
2022-12-27T09:27:20.097Z,1018.44
2022-12-27T09:28:20.126Z,1018.49
2022-12-27T09:29:20.070Z,1018.51
2022-12-27T09:30:20.070Z,1018.53
2022-12-27T09:31:20.099Z,1018.44
2022-12-27T09:32:20.030Z,1018.42
2022-12-27T09:33:20.033Z,1018.46
2022-12-27T09:34:20.037Z,1018.39
2022-12-27T09:35:20.044Z,1018.47
2022-12-27T09:36:20.005Z,1018.42
2022-12-27T09:37:19.979Z,1018.48
2022-12-27T09:38:19.977Z,1018.46
2022-12-27T09:39:19.992Z,1018.51
2022-12-27T09:40:19.958Z,1018.48
2022-12-27T09:41:47.595Z,1018.52
2022-12-27T09:43:25.564Z,1018.48
2022-12-27T09:44:20.930Z,1018.58
2022-12-27T09:45:19.900Z,1018.50
2022-12-27T09:46:19.937Z,1018.51
2022-12-27T09:47:19.890Z,1018.52
2022-12-27T09:48:19.903Z,1018.50
2022-12-27T09:49:19.849Z,1018.48
2022-12-27T09:50:19.848Z,1018.50
2022-12-27T09:51:19.831Z,1018.51
2022-12-27T09:52:19.820Z,1018.52
2022-12-27T09:53:19.809Z,1018.55
2022-12-27T09:54:19.825Z,1018.48
2022-12-27T09:55:19.789Z,1018.56
2022-12-27T09:56:19.779Z,1018.55
2022-12-27T09:57:20.634Z,1018.50
2022-12-27T09:58:19.761Z,1018.53
2022-12-27T09:59:19.761Z,1018.48
2022-12-27T10:00:19.747Z,1018.50
2022-12-27T10:01:20.836Z,1018.53
2022-12-27T10:02:19.776Z,1018.44
2022-12-27T10:03:19.698Z,1018.43
2022-12-27T10:04:19.749Z,1018.40
2022-12-27T10:05:21.526Z,1018.56
2022-12-27T10:06:19.670Z,1018.43
2022-12-27T10:07:19.651Z,1018.46
2022-12-27T10:08:19.799Z,1018.47
2022-12-27T10:09:19.631Z,1018.43
2022-12-27T10:10:19.734Z,1018.39
2022-12-27T10:11:19.610Z,1018.51
2022-12-27T10:12:19.613Z,1018.55
2022-12-27T10:13:19.617Z,1018.49
2022-12-27T10:14:19.580Z,1018.55
2022-12-27T10:15:19.579Z,1018.54
2022-12-27T10:16:19.577Z,1018.58
2022-12-27T10:17:19.552Z,1018.49
2022-12-27T10:18:19.546Z,1018.56
2022-12-27T10:19:19.544Z,1018.60
2022-12-27T10:20:19.539Z,1018.57
2022-12-27T10:21:19.507Z,1018.51
2022-12-27T10:22:19.499Z,1018.56
2022-12-27T10:23:19.491Z,1018.55
2022-12-27T10:24:19.490Z,1018.62
2022-12-27T10:25:19.471Z,1018.62
2022-12-27T10:26:19.542Z,1018.59
2022-12-27T10:27:19.466Z,1018.61
2022-12-27T10:28:19.424Z,1018.66
2022-12-27T10:29:19.442Z,1018.68
2022-12-27T10:30:19.508Z,1018.64
2022-12-27T10:31:19.414Z,1018.62
2022-12-27T10:32:19.406Z,1018.62
2022-12-27T10:33:19.372Z,1018.60
2022-12-27T10:34:19.392Z,1018.63
2022-12-27T10:35:19.361Z,1018.66
2022-12-27T10:36:19.343Z,1018.66
2022-12-27T10:37:19.342Z,1018.64
2022-12-27T10:38:19.311Z,1018.65
2022-12-27T10:39:19.310Z,1018.55
2022-12-27T10:40:19.329Z,1018.64
2022-12-27T10:41:19.285Z,1018.63
2022-12-27T10:42:19.280Z,1018.60
2022-12-27T10:43:19.266Z,1018.63
2022-12-27T10:44:19.276Z,1018.60
2022-12-27T10:45:19.259Z,1018.63
2022-12-27T10:46:19.292Z,1018.61
2022-12-27T10:47:19.229Z,1018.60
2022-12-27T10:48:19.214Z,1018.64
2022-12-27T10:49:20.946Z,1018.64
2022-12-27T10:50:19.220Z,1018.56
2022-12-27T10:51:19.202Z,1018.60
2022-12-27T10:52:19.170Z,1018.60
2022-12-27T10:53:19.161Z,1018.61
2022-12-27T10:54:19.141Z,1018.69
2022-12-27T10:55:19.169Z,1018.66
2022-12-27T10:56:19.133Z,1018.65
2022-12-27T10:57:19.116Z,1018.69
2022-12-27T10:58:19.101Z,1018.66
2022-12-27T10:59:19.092Z,1018.69
2022-12-27T11:00:19.220Z,1018.78
2022-12-27T11:01:19.258Z,1018.72
2022-12-27T11:02:19.246Z,1018.65
2022-12-27T11:03:19.069Z,1018.70
2022-12-27T11:04:21.153Z,1018.69
2022-12-27T11:05:19.023Z,1018.76
2022-12-27T11:06:19.011Z,1018.74
2022-12-27T11:07:19.039Z,1018.77
2022-12-27T11:08:18.991Z,1018.68
2022-12-27T11:09:18.983Z,1018.74
2022-12-27T11:10:19.007Z,1018.74
2022-12-27T11:11:18.968Z,1018.75
2022-12-27T11:12:18.982Z,1018.69
2022-12-27T11:13:18.939Z,1018.68
2022-12-27T11:14:18.924Z,1018.67
2022-12-27T11:15:18.918Z,1018.69
2022-12-27T11:16:18.971Z,1018.69
2022-12-27T11:17:18.896Z,1018.63
2022-12-27T11:18:18.904Z,1018.71
2022-12-27T11:19:18.881Z,1018.76
2022-12-27T11:20:18.865Z,1018.75
2022-12-27T11:21:25.778Z,1018.77
2022-12-27T11:22:19.853Z,1018.73
2022-12-27T11:23:18.827Z,1018.80
2022-12-27T11:24:18.824Z,1018.77
2022-12-27T11:25:18.810Z,1018.88
2022-12-27T11:26:18.814Z,1018.89
2022-12-27T11:27:18.793Z,1018.80
2022-12-27T11:28:18.773Z,1018.85
2022-12-27T11:29:18.796Z,1018.82
2022-12-27T11:30:18.752Z,1018.78
2022-12-27T11:31:18.821Z,1018.83
2022-12-27T11:32:18.736Z,1018.76
2022-12-27T11:33:24.399Z,1018.72
2022-12-27T11:34:19.717Z,1018.71
2022-12-27T11:35:18.699Z,1018.66
2022-12-27T11:36:18.705Z,1018.70
2022-12-27T11:37:18.695Z,1018.69
2022-12-27T11:38:18.665Z,1018.66
2022-12-27T11:39:18.661Z,1018.67
2022-12-27T11:40:18.688Z,1018.66
2022-12-27T11:41:23.137Z,1018.70
2022-12-27T11:42:19.631Z,1018.66
2022-12-27T11:43:18.626Z,1018.61
2022-12-27T11:44:18.605Z,1018.62
2022-12-27T11:45:18.593Z,1018.57
2022-12-27T11:46:18.619Z,1018.59
2022-12-27T11:47:18.607Z,1018.68
2022-12-27T11:48:18.555Z,1018.68
2022-12-27T11:49:18.555Z,1018.64
2022-12-27T11:50:18.535Z,1018.65
2022-12-27T11:51:18.562Z,1018.66
2022-12-27T11:52:18.525Z,1018.67
2022-12-27T11:53:18.512Z,1018.70
2022-12-27T11:54:18.489Z,1018.62
2022-12-27T11:55:18.477Z,1018.58
2022-12-27T11:56:18.466Z,1018.54
2022-12-27T11:57:18.490Z,1018.60
2022-12-27T11:58:18.451Z,1018.51
2022-12-27T11:59:18.436Z,1018.64
2022-12-27T12:00:18.433Z,1018.60
2022-12-27T12:01:18.453Z,1018.52
2022-12-27T12:02:18.457Z,1018.57
2022-12-27T12:03:18.417Z,1018.54
2022-12-27T12:04:18.395Z,1018.53
2022-12-27T12:05:18.369Z,1018.50
2022-12-27T12:06:18.354Z,1018.58